Time;durP1;ratioP1;P1;durP2;ratioP2;P2;SDS_P1;SDS_P2;PMS_P1;PMS_P2;Temp;Humidity;BMP_temperature;BMP_pressure;BME280_temperature;BME280_humidity;BME280_pressure;Samples;Min_cycle;Max_cycle;Signal;HPM_P1;HPM_P2
2020/12/04 00:00:16;;;;;;;10.82;5.00;;;4.20;99.90;;;;;;5094729;28;20201;-74
2020/12/04 00:02:43;;;;;;;14.10;6.65;;;4.20;99.90;;;;;;5094906;28;20209;-75
2020/12/04 00:05:09;;;;;;;12.27;6.05;;;4.30;99.90;;;;;;5094804;28;20277;-74
2020/12/04 00:07:36;;;;;;;14.80;6.07;;;4.30;99.90;;;;;;5093350;28;20202;-74
2020/12/04 00:10:03;;;;;;;11.13;5.28;;;4.40;99.90;;;;;;5094830;28;20206;-75
2020/12/04 00:12:29;;;;;;;11.63;6.15;;;4.40;99.90;;;;;;5094660;28;20224;-74
2020/12/04 00:14:55;;;;;;;12.75;5.80;;;4.30;99.90;;;;;;5094186;28;20237;-75
2020/12/04 00:17:23;;;;;;;9.82;5.85;;;4.30;99.90;;;;;;5094473;28;20196;-73
2020/12/04 00:19:49;;;;;;;9.82;4.85;;;4.10;99.90;;;;;;5094412;28;20195;-76
2020/12/04 00:22:15;;;;;;;10.02;6.13;;;4.10;99.90;;;;;;5094292;28;20210;-75
2020/12/04 00:24:42;;;;;;;13.93;5.80;;;4.20;99.90;;;;;;5094185;28;20202;-75
2020/12/04 00:27:08;;;;;;;15.13;5.63;;;4.30;99.90;;;;;;5094164;28;20198;-74
2020/12/04 00:29:34;;;;;;;8.02;5.05;;;4.30;99.90;;;;;;5094059;28;20194;-75
2020/12/04 00:32:00;;;;;;;12.13;5.50;;;4.40;99.90;;;;;;5094117;28;20709;-74
2020/12/04 00:34:28;;;;;;;12.32;5.70;;;4.30;99.90;;;;;;5093582;28;20190;-76
2020/12/04 00:36:54;;;;;;;13.25;5.95;;;4.40;99.90;;;;;;5094419;28;20201;-76
2020/12/04 00:39:21;;;;;;;11.55;5.70;;;4.30;99.90;;;;;;5094042;28;20218;-75
2020/12/04 00:41:47;;;;;;;14.18;5.45;;;4.20;99.90;;;;;;5093617;28;20220;-75
2020/12/04 00:44:14;;;;;;;8.75;5.47;;;4.00;99.90;;;;;;5093870;28;20189;-75
2020/12/04 00:46:40;;;;;;;11.35;5.20;;;4.00;99.90;;;;;;5093811;28;20213;-74
2020/12/04 00:49:07;;;;;;;12.48;6.68;;;4.00;99.90;;;;;;5093504;28;20285;-75
2020/12/04 00:51:34;;;;;;;11.10;5.60;;;3.80;99.90;;;;;;5093586;28;20210;-75
2020/12/04 00:54:00;;;;;;;6.65;5.13;;;3.90;99.90;;;;;;5093594;28;20575;-76
2020/12/04 00:56:31;;;;;;;9.98;6.18;;;3.80;99.90;;;;;;5093329;28;20205;-75
2020/12/04 00:58:58;;;;;;;12.60;5.30;;;3.80;99.90;;;;;;5094019;28;20229;-76
2020/12/04 01:01:24;;;;;;;12.65;5.97;;;3.90;99.90;;;;;;5094002;28;20328;-76
2020/12/04 01:03:50;;;;;;;11.52;4.75;;;4.00;99.90;;;;;;5091017;28;20194;-77
2020/12/04 01:06:17;;;;;;;11.38;6.03;;;4.10;99.90;;;;;;5093606;28;20276;-76
2020/12/04 01:08:44;;;;;;;10.38;4.85;;;4.20;99.90;;;;;;5093574;28;20582;-77
2020/12/04 01:11:11;;;;;;;10.55;4.97;;;4.10;99.90;;;;;;5093616;28;20225;-75
2020/12/04 01:13:37;;;;;;;12.35;4.90;;;4.20;99.90;;;;;;5094066;28;20234;-76
2020/12/04 01:16:04;;;;;;;7.40;4.28;;;4.20;99.90;;;;;;5093090;28;20679;-76
2020/12/04 01:18:30;;;;;;;14.68;5.93;;;4.20;99.90;;;;;;5093125;28;20217;-76
2020/12/04 01:20:56;;;;;;;16.08;6.47;;;4.20;99.90;;;;;;5082446;28;20211;-77
2020/12/04 01:23:23;;;;;;;7.75;5.10;;;4.10;99.90;;;;;;5083517;28;20205;-77
2020/12/04 01:25:50;;;;;;;12.40;4.60;;;4.10;99.90;;;;;;5076954;28;20195;-77
2020/12/04 01:28:16;;;;;;;10.07;4.78;;;4.20;99.90;;;;;;5082159;28;20194;-79
2020/12/04 01:30:43;;;;;;;14.95;6.18;;;4.30;99.90;;;;;;5095305;28;20279;-78
2020/12/04 01:33:09;;;;;;;10.40;5.72;;;4.40;99.90;;;;;;5094690;28;20656;-76
2020/12/04 01:35:35;;;;;;;14.38;5.75;;;4.50;99.90;;;;;;5093280;28;20200;-77
2020/12/04 01:38:02;;;;;;;11.52;6.10;;;4.50;99.90;;;;;;5086975;28;20219;-77
2020/12/04 01:40:31;;;;;;;13.00;6.22;;;4.50;99.90;;;;;;5084822;28;20198;-76
2020/12/04 01:42:58;;;;;;;12.98;6.43;;;4.60;99.90;;;;;;5081285;28;20217;-75
2020/12/04 01:45:24;;;;;;;14.60;5.88;;;4.70;99.90;;;;;;5083686;28;20194;-74
2020/12/04 01:47:51;;;;;;;7.43;4.57;;;4.40;99.90;;;;;;5082031;28;20292;-75
2020/12/04 01:50:17;;;;;;;13.75;5.80;;;4.40;99.90;;;;;;5086747;28;20195;-76
2020/12/04 01:52:44;;;;;;;12.23;5.72;;;4.50;99.90;;;;;;5092425;28;20291;-77
2020/12/04 01:55:10;;;;;;;11.23;5.57;;;4.40;99.90;;;;;;5088629;28;20204;-76
2020/12/04 01:57:43;;;;;;;12.88;5.47;;;4.30;99.90;;;;;;5092718;28;20218;-75
2020/12/04 02:00:10;;;;;;;13.20;5.20;;;4.40;99.90;;;;;;5090211;28;20194;-75
2020/12/04 02:02:36;;;;;;;12.13;5.75;;;4.20;99.90;;;;;;5093513;28;20308;-78
2020/12/04 02:05:03;;;;;;;10.48;5.03;;;4.40;99.90;;;;;;5094126;28;20633;-77
2020/12/04 02:07:36;;;;;;;9.85;5.07;;;4.30;99.90;;;;;;5093263;28;20285;-77
2020/12/04 02:10:10;;;;;;;8.52;5.53;;;4.40;99.90;;;;;;5093530;28;20202;-78
2020/12/04 02:12:37;;;;;;;8.90;4.85;;;4.40;99.90;;;;;;5089551;28;20253;-79
2020/12/04 02:15:04;;;;;;;10.48;5.90;;;4.40;99.90;;;;;;5093384;28;20198;-77
2020/12/04 02:17:33;;;;;;;9.55;5.05;;;4.50;99.90;;;;;;5092697;28;20564;-78
2020/12/04 02:20:00;;;;;;;11.05;6.20;;;4.60;99.90;;;;;;5093730;28;20302;-78
2020/12/04 02:22:34;;;;;;;20.30;4.30;;;4.60;99.90;;;;;;5095482;28;20228;-77
2020/12/04 02:25:00;;;;;;;10.63;5.53;;;4.70;99.90;;;;;;5091892;28;20190;-79
2020/12/04 02:27:27;;;;;;;9.88;5.60;;;4.70;99.90;;;;;;5093912;28;20509;-76
2020/12/04 02:29:53;;;;;;;11.10;6.43;;;4.70;99.90;;;;;;5094423;28;20194;-77
2020/12/04 02:32:19;;;;;;;13.38;5.93;;;4.70;99.90;;;;;;5095040;28;20267;-77
2020/12/04 02:34:46;;;;;;;14.02;6.18;;;4.70;99.90;;;;;;5087655;28;20199;-77
2020/12/04 02:37:12;;;;;;;13.73;5.97;;;4.80;99.90;;;;;;5087000;28;20201;-77
2020/12/04 02:39:39;;;;;;;10.10;5.03;;;4.90;99.90;;;;;;5086566;28;20218;-76
2020/12/04 02:42:05;;;;;;;10.70;5.75;;;4.80;99.90;;;;;;5087814;28;20218;-76
2020/12/04 02:44:32;;;;;;;10.10;5.72;;;4.70;99.90;;;;;;5085483;28;20289;-76
2020/12/04 02:46:58;;;;;;;12.43;6.45;;;4.60;99.90;;;;;;5086227;28;20205;-76
2020/12/04 02:49:25;;;;;;;13.57;5.75;;;4.50;99.90;;;;;;5087233;28;20190;-77
2020/12/04 02:51:53;;;;;;;12.18;6.85;;;4.50;99.90;;;;;;5084527;28;20220;-77
2020/12/04 02:54:20;;;;;;;12.80;7.07;;;4.40;99.90;;;;;;5086878;28;20225;-76
2020/12/04 02:56:47;;;;;;;17.17;6.68;;;4.40;99.90;;;;;;5084499;28;20665;-76
2020/12/04 02:59:13;;;;;;;10.10;6.82;;;4.40;99.90;;;;;;5087565;28;20672;-76
2020/12/04 03:01:39;;;;;;;11.43;5.57;;;4.30;99.90;;;;;;5084687;28;20215;-76
2020/12/04 03:04:06;;;;;;;13.10;6.10;;;4.40;99.90;;;;;;5084940;28;20201;-75
2020/12/04 03:06:32;;;;;;;13.05;7.40;;;4.60;99.90;;;;;;5086264;28;20281;-75
2020/12/04 03:08:59;;;;;;;13.50;6.10;;;4.80;99.90;;;;;;5086304;28;20564;-76
2020/12/04 03:11:25;;;;;;;9.55;5.38;;;4.80;99.90;;;;;;5087327;28;20248;-76
2020/12/04 03:13:53;;;;;;;14.48;6.07;;;4.90;99.90;;;;;;5084824;28;20294;-76
2020/12/04 03:16:19;;;;;;;10.25;6.80;;;4.90;99.90;;;;;;5085132;28;20194;-76
2020/12/04 03:18:45;;;;;;;12.25;5.20;;;4.90;99.90;;;;;;5086421;28;20265;-75
2020/12/04 03:21:12;;;;;;;11.07;5.43;;;4.90;99.90;;;;;;5083553;28;20710;-77
2020/12/04 03:23:38;;;;;;;12.00;5.28;;;5.00;99.90;;;;;;5086067;28;20199;-75
2020/12/04 03:26:04;;;;;;;12.20;5.55;;;5.00;99.90;;;;;;5084515;28;20209;-76
2020/12/04 03:28:31;;;;;;;10.73;5.65;;;4.90;99.90;;;;;;5084781;28;20201;-76
2020/12/04 03:30:59;;;;;;;11.50;5.60;;;4.70;99.90;;;;;;5085352;28;20246;-81
2020/12/04 03:33:26;;;;;;;10.20;5.72;;;4.80;99.90;;;;;;5089632;28;20191;-78
2020/12/04 03:35:52;;;;;;;9.82;5.35;;;4.80;99.90;;;;;;5095013;28;20194;-76
2020/12/04 03:38:18;;;;;;;9.23;5.15;;;4.80;99.90;;;;;;5097458;28;20210;-76
2020/12/04 03:40:45;;;;;;;16.05;5.88;;;4.90;99.90;;;;;;5090385;28;20225;-77
2020/12/04 03:43:11;;;;;;;11.77;5.50;;;5.00;99.90;;;;;;5092103;28;20598;-77
2020/12/04 03:45:38;;;;;;;13.18;6.50;;;5.10;99.90;;;;;;5090223;28;20293;-77
2020/12/04 03:48:05;;;;;;;9.90;5.55;;;5.10;99.90;;;;;;5093348;28;20675;-77
2020/12/04 03:50:31;;;;;;;11.43;6.03;;;5.10;99.90;;;;;;5095432;28;20292;-75
2020/12/04 03:52:58;;;;;;;10.32;5.55;;;5.10;99.90;;;;;;5087713;28;20197;-76
2020/12/04 03:55:24;;;;;;;12.82;5.20;;;5.20;99.90;;;;;;5086087;28;20225;-77
2020/12/04 03:57:50;;;;;;;10.85;5.15;;;5.20;99.90;;;;;;5086155;28;20202;-77
2020/12/04 04:00:17;;;;;;;10.55;5.03;;;5.00;99.90;;;;;;5089083;28;20199;-77
2020/12/04 04:02:43;;;;;;;10.43;5.55;;;5.00;99.90;;;;;;5089131;28;20696;-77
2020/12/04 04:05:10;;;;;;;11.27;6.22;;;5.00;99.90;;;;;;5087851;28;20530;-77
2020/12/04 04:07:36;;;;;;;11.63;6.10;;;5.00;99.90;;;;;;5092381;28;20694;-76
2020/12/04 04:10:04;;;;;;;13.27;6.07;;;5.00;99.90;;;;;;5095647;28;20664;-76
2020/12/04 04:12:30;;;;;;;9.15;4.95;;;4.80;99.90;;;;;;5093388;28;20224;-77
2020/12/04 04:14:56;;;;;;;9.50;4.85;;;4.70;99.90;;;;;;5096859;28;20230;-77
2020/12/04 04:17:23;;;;;;;17.80;6.75;;;4.60;99.90;;;;;;5096408;28;20223;-77
2020/12/04 04:19:49;;;;;;;8.10;4.72;;;4.70;99.90;;;;;;5091604;28;20224;-77
2020/12/04 04:22:16;;;;;;;8.60;5.85;;;4.60;99.90;;;;;;5089371;28;20641;-77
2020/12/04 04:24:42;;;;;;;10.00;5.97;;;4.70;99.90;;;;;;5086136;28;20305;-77
2020/12/04 04:27:09;;;;;;;8.13;4.75;;;4.70;99.90;;;;;;5085694;28;20195;-76
2020/12/04 04:29:35;;;;;;;15.20;5.90;;;4.70;99.90;;;;;;5083521;28;20286;-72
2020/12/04 04:32:02;;;;;;;6.95;4.95;;;4.70;99.90;;;;;;5084842;28;20211;-76
2020/12/04 04:34:28;;;;;;;10.70;5.47;;;4.60;99.90;;;;;;5083245;28;20281;-76
2020/12/04 04:36:54;;;;;;;11.77;5.75;;;4.60;99.90;;;;;;5092190;28;20277;-74
2020/12/04 04:39:22;;;;;;;8.52;4.65;;;4.40;99.90;;;;;;5093817;28;20214;-75
2020/12/04 04:41:54;;;;;;;9.93;4.50;;;4.50;99.90;;;;;;5094080;28;20220;-76
2020/12/04 04:44:21;;;;;;;11.30;5.18;;;4.60;99.90;;;;;;5094424;28;20198;-77
2020/12/04 04:46:51;;;;;;;9.18;5.05;;;4.50;99.90;;;;;;5084958;28;20331;-76
2020/12/04 04:49:27;;;;;;;12.15;6.03;;;4.60;99.90;;;;;;5083119;28;20195;-77
2020/12/04 04:51:55;;;;;;;10.70;6.00;;;4.60;99.90;;;;;;5081724;28;20603;-74
2020/12/04 04:54:23;;;;;;;12.05;7.55;;;4.50;99.90;;;;;;5083845;28;20210;-77
2020/12/04 04:56:50;;;;;;;17.48;5.95;;;4.50;99.90;;;;;;5082566;28;20218;-74
2020/12/04 04:59:18;;;;;;;9.00;5.93;;;4.50;99.90;;;;;;5085679;28;20214;-74
2020/12/04 05:01:46;;;;;;;9.27;5.43;;;4.60;99.90;;;;;;5091531;28;20285;-75
2020/12/04 05:04:13;;;;;;;13.10;6.50;;;4.70;99.90;;;;;;5084250;28;20195;-75
2020/12/04 05:06:40;;;;;;;10.57;5.70;;;4.70;99.90;;;;;;5081924;28;20195;-74
2020/12/04 05:09:08;;;;;;;13.10;5.60;;;4.90;99.90;;;;;;5084173;28;20241;-74
2020/12/04 05:11:36;;;;;;;10.48;5.60;;;4.90;99.90;;;;;;5084056;28;20721;-74
2020/12/04 05:14:13;;;;;;;13.50;6.20;;;4.80;99.90;;;;;;5083013;28;20195;-74
2020/12/04 05:16:40;;;;;;;8.55;5.72;;;4.60;99.90;;;;;;5082287;28;20195;-74
2020/12/04 05:19:07;;;;;;;12.52;5.95;;;4.50;99.90;;;;;;5082494;28;20217;-74
2020/12/04 05:21:33;;;;;;;9.23;5.28;;;4.40;99.90;;;;;;5081562;28;20579;-75
2020/12/04 05:24:00;;;;;;;8.65;5.45;;;4.60;99.90;;;;;;5083756;28;20200;-73
2020/12/04 05:26:31;;;;;;;6.47;4.75;;;4.60;99.90;;;;;;5083225;28;20693;-74
2020/12/04 05:28:58;;;;;;;11.70;5.85;;;4.50;99.90;;;;;;5081971;28;20226;-74
2020/12/04 05:31:29;;;;;;;10.23;4.82;;;4.40;99.90;;;;;;5084403;28;20297;-75
2020/12/04 05:33:56;;;;;;;10.95;5.43;;;4.20;99.90;;;;;;5081663;28;20195;-75
2020/12/04 05:36:30;;;;;;;7.32;4.63;;;4.20;99.90;;;;;;5083079;28;20198;-74
2020/12/04 05:38:58;;;;;;;9.30;5.32;;;4.30;99.90;;;;;;5083846;28;20217;-74
2020/12/04 05:41:25;;;;;;;8.20;4.82;;;4.30;99.90;;;;;;5080979;28;20217;-77
2020/12/04 05:43:53;;;;;;;12.65;6.07;;;4.30;99.90;;;;;;5074441;28;20214;-74
2020/12/04 05:46:23;;;;;;;9.48;4.70;;;4.30;99.90;;;;;;5073696;28;20199;-75
2020/12/04 05:48:58;;;;;;;12.45;5.15;;;4.30;99.90;;;;;;5074154;28;20198;-74
2020/12/04 05:51:25;;;;;;;13.38;5.45;;;4.30;99.90;;;;;;5073792;28;20322;-74
2020/12/04 05:53:53;;;;;;;10.00;5.25;;;4.40;99.90;;;;;;5074184;28;20702;-74
2020/12/04 05:56:19;;;;;;;8.73;5.75;;;4.50;99.90;;;;;;5073456;28;20198;-74
2020/12/04 05:58:47;;;;;;;15.38;6.72;;;4.70;99.90;;;;;;5073817;28;20223;-74
2020/12/04 06:01:16;;;;;;;12.82;6.00;;;4.80;99.90;;;;;;5072615;28;20226;-74
2020/12/04 06:03:43;;;;;;;9.95;6.07;;;4.90;99.90;;;;;;5073363;28;20214;-74
2020/12/04 06:06:16;;;;;;;10.40;4.93;;;4.80;99.90;;;;;;5073613;28;20545;-74
2020/12/04 06:08:43;;;;;;;17.02;5.85;;;4.60;99.90;;;;;;5073987;28;20295;-74
2020/12/04 06:11:09;;;;;;;14.00;7.32;;;4.50;99.90;;;;;;5073663;28;20227;-74
2020/12/04 06:13:36;;;;;;;9.85;5.90;;;4.30;99.90;;;;;;5073593;28;20198;-74
2020/12/04 06:16:13;;;;;;;10.15;5.95;;;4.30;99.90;;;;;;5073679;28;20209;-74
2020/12/04 06:18:39;;;;;;;12.25;6.13;;;4.30;99.90;;;;;;5073857;28;20221;-74
2020/12/04 06:21:07;;;;;;;13.57;6.03;;;4.30;99.90;;;;;;5073612;28;20219;-74
2020/12/04 06:23:33;;;;;;;9.90;6.05;;;4.30;99.90;;;;;;5073564;28;20215;-74
2020/12/04 06:26:05;;;;;;;11.93;6.25;;;4.40;99.90;;;;;;5073437;28;20199;-75
2020/12/04 06:28:36;;;;;;;15.52;6.53;;;4.50;99.90;;;;;;5073719;28;20202;-75
2020/12/04 06:31:10;;;;;;;13.00;5.72;;;4.70;99.90;;;;;;5073306;28;20229;-74
2020/12/04 06:33:45;;;;;;;14.15;5.55;;;4.70;99.90;;;;;;5074185;28;20198;-74
2020/12/04 06:36:32;;;;;;;7.00;5.03;;;4.80;99.90;;;;;;5073046;28;20210;-73
2020/12/04 06:39:00;;;;;;;10.15;4.97;;;4.90;99.90;;;;;;5073410;28;20224;-75
2020/12/04 06:41:28;;;;;;;9.95;5.00;;;5.00;99.90;;;;;;5073672;28;20254;-75
2020/12/04 06:43:58;;;;;;;12.18;4.97;;;5.00;99.90;;;;;;5073966;28;20203;-74
2020/12/04 06:46:38;;;;;;;8.75;5.43;;;5.10;99.90;;;;;;5072827;28;20202;-75
2020/12/04 06:49:08;;;;;;;8.35;4.13;;;5.00;99.90;;;;;;5073406;28;20290;-74
2020/12/04 06:51:36;;;;;;;7.70;4.82;;;5.00;99.90;;;;;;5073671;28;20336;-74
2020/12/04 06:54:02;;;;;;;12.57;6.00;;;5.00;99.90;;;;;;5073416;28;20217;-74
2020/12/04 06:56:28;;;;;;;10.75;5.00;;;5.00;99.90;;;;;;5073701;28;20245;-74
2020/12/04 06:58:55;;;;;;;9.27;5.30;;;5.00;99.90;;;;;;5073547;28;20222;-74
2020/12/04 07:01:21;;;;;;;9.00;5.10;;;5.00;99.90;;;;;;5072964;28;20813;-74
2020/12/04 07:03:49;;;;;;;8.40;5.50;;;5.10;99.90;;;;;;5073301;28;20289;-75
2020/12/04 07:06:21;;;;;;;9.95;5.93;;;5.10;99.90;;;;;;5073109;28;20211;-74
2020/12/04 07:09:02;;;;;;;7.95;4.65;;;5.20;99.90;;;;;;5073429;28;20195;-74
2020/12/04 07:11:29;;;;;;;8.82;4.90;;;5.20;99.90;;;;;;5073593;28;20676;-74
2020/12/04 07:13:55;;;;;;;9.63;5.50;;;5.40;99.90;;;;;;5072942;28;20744;-74
2020/12/04 07:16:22;;;;;;;11.75;5.13;;;5.40;99.90;;;;;;5074861;28;20282;-75
2020/12/04 07:18:52;;;;;;;8.10;4.75;;;5.40;99.90;;;;;;5076952;28;20545;-74
2020/12/04 07:21:19;;;;;;;8.52;4.60;;;5.40;99.90;;;;;;5077073;28;20226;-75
2020/12/04 07:23:45;;;;;;;11.32;5.65;;;5.50;99.90;;;;;;5077366;28;20203;-74
2020/12/04 07:26:20;;;;;;;10.38;6.10;;;5.40;99.90;;;;;;5076312;28;20204;-74
2020/12/04 07:28:47;;;;;;;10.20;5.10;;;5.20;99.90;;;;;;5076774;28;20199;-74
2020/12/04 07:31:15;;;;;;;9.32;5.45;;;5.20;99.90;;;;;;5076399;28;20617;-74
2020/12/04 07:33:56;;;;;;;9.43;5.07;;;5.30;99.90;;;;;;5076805;28;20207;-74
2020/12/04 07:36:24;;;;;;;9.80;5.78;;;5.40;99.90;;;;;;5076099;28;20256;-75
2020/12/04 07:38:55;;;;;;;10.35;5.25;;;5.50;99.90;;;;;;5076168;28;20719;-74
2020/12/04 07:41:27;;;;;;;10.88;5.88;;;5.50;99.90;;;;;;5076607;28;20226;-74
2020/12/04 07:44:01;;;;;;;10.98;4.90;;;5.50;99.90;;;;;;5076654;28;20285;-74
2020/12/04 07:46:28;;;;;;;8.70;4.90;;;5.50;99.90;;;;;;5076289;28;20225;-74
2020/12/04 07:48:59;;;;;;;9.50;5.90;;;5.50;99.90;;;;;;5076743;28;20571;-74
2020/12/04 07:51:28;;;;;;;9.70;5.95;;;5.50;99.90;;;;;;5075976;28;20260;-74
2020/12/04 07:53:56;;;;;;;9.88;5.78;;;5.50;99.90;;;;;;5076129;28;20213;-74
2020/12/04 07:56:26;;;;;;;11.23;5.28;;;5.30;99.90;;;;;;5075869;28;20209;-74
2020/12/04 07:59:04;;;;;;;10.70;5.53;;;5.10;99.90;;;;;;5076367;28;20225;-74
2020/12/04 08:01:31;;;;;;;11.90;6.47;;;5.10;99.90;;;;;;5076135;28;20411;-74
2020/12/04 08:03:58;;;;;;;9.25;5.82;;;5.20;99.90;;;;;;5076069;28;20202;-74
2020/12/04 08:06:26;;;;;;;11.95;5.30;;;5.10;99.90;;;;;;5075798;28;20245;-74
2020/12/04 08:09:11;;;;;;;11.35;6.43;;;5.10;99.90;;;;;;5076187;28;20235;-74
2020/12/04 08:11:47;;;;;;;12.38;5.65;;;5.30;99.90;;;;;;5075724;28;20716;-75
2020/12/04 08:14:15;;;;;;;10.43;6.50;;;5.30;99.90;;;;;;5075684;28;20850;-74
2020/12/04 08:16:42;;;;;;;9.75;5.75;;;5.50;99.90;;;;;;5075723;28;20310;-74
2020/12/04 08:19:11;;;;;;;13.48;5.55;;;5.60;99.90;;;;;;5075787;28;20225;-74
2020/12/04 08:21:56;;;;;;;12.27;5.72;;;5.70;99.90;;;;;;5075896;28;20230;-74
2020/12/04 08:24:24;;;;;;;11.43;5.85;;;5.80;99.90;;;;;;5076384;28;20186;-74
2020/12/04 08:27:06;;;;;;;10.15;5.63;;;5.80;99.90;;;;;;5074391;28;20199;-74
2020/12/04 08:29:34;;;;;;;11.75;5.80;;;5.70;99.90;;;;;;5075787;28;20283;-73
2020/12/04 08:32:09;;;;;;;10.35;5.30;;;5.40;99.90;;;;;;5075900;28;20615;-74
2020/12/04 08:34:36;;;;;;;8.43;5.85;;;5.30;99.90;;;;;;5075644;28;20259;-75
2020/12/04 08:37:05;;;;;;;12.88;6.13;;;5.50;99.90;;;;;;5074981;28;20203;-74
2020/12/04 08:39:36;;;;;;;11.10;6.78;;;5.60;99.90;;;;;;5075296;28;20236;-74
2020/12/04 08:42:15;;;;;;;11.95;6.25;;;5.60;99.90;;;;;;5075734;28;20222;-73
2020/12/04 08:44:42;;;;;;;11.15;6.22;;;5.70;99.90;;;;;;5075312;28;20209;-73
2020/12/04 08:47:08;;;;;;;14.43;5.70;;;5.80;99.90;;;;;;5075087;28;20305;-75
2020/12/04 08:49:35;;;;;;;11.07;6.78;;;6.00;99.90;;;;;;5075125;28;20290;-73
2020/12/04 08:52:03;;;;;;;11.18;6.50;;;6.00;99.90;;;;;;5075164;28;20550;-74
2020/12/04 08:54:29;;;;;;;9.43;5.90;;;6.00;99.90;;;;;;5074910;28;20211;-73
2020/12/04 08:56:56;;;;;;;8.90;5.38;;;6.10;99.90;;;;;;5075271;28;20294;-74
2020/12/04 08:59:24;;;;;;;11.90;6.57;;;6.10;99.90;;;;;;5074778;28;20218;-74
2020/12/04 09:01:51;;;;;;;12.13;6.00;;;6.10;99.90;;;;;;5075217;28;20222;-74
2020/12/04 09:04:18;;;;;;;10.07;6.25;;;6.20;99.90;;;;;;5074652;28;20238;-74
2020/12/04 09:06:46;;;;;;;17.25;6.15;;;6.20;99.90;;;;;;5074499;28;20203;-74
2020/12/04 09:09:12;;;;;;;15.88;7.00;;;6.30;99.90;;;;;;5074687;28;20220;-74
2020/12/04 09:11:38;;;;;;;13.90;7.22;;;6.50;99.90;;;;;;5074900;28;20222;-74
2020/12/04 09:14:05;;;;;;;8.68;6.20;;;6.60;99.90;;;;;;5074599;28;20213;-74
2020/12/04 09:16:32;;;;;;;15.05;6.85;;;6.70;99.90;;;;;;5074206;28;20298;-74
2020/12/04 09:18:58;;;;;;;11.43;6.63;;;6.80;99.90;;;;;;5074533;28;20352;-74
2020/12/04 09:21:25;;;;;;;12.05;7.18;;;6.80;99.90;;;;;;5074899;28;20300;-74
2020/12/04 09:23:51;;;;;;;15.43;6.90;;;6.90;99.90;;;;;;5074736;28;20293;-74
2020/12/04 09:26:17;;;;;;;14.07;7.15;;;7.00;99.90;;;;;;5074450;28;20299;-74
2020/12/04 09:28:44;;;;;;;14.55;8.65;;;7.10;99.90;;;;;;5074716;28;20592;-74
2020/12/04 09:31:10;;;;;;;25.20;7.95;;;7.10;99.10;;;;;;5074140;28;20272;-74
2020/12/04 09:33:37;;;;;;;12.43;7.18;;;6.90;98.30;;;;;;5074361;28;20203;-75
2020/12/04 09:36:03;;;;;;;12.13;8.07;;;6.70;99.90;;;;;;5074332;28;20209;-74
2020/12/04 09:38:30;;;;;;;12.13;6.53;;;6.70;99.90;;;;;;5073960;28;20716;-74
2020/12/04 09:40:57;;;;;;;10.80;5.85;;;6.60;99.90;;;;;;5074436;28;20226;-75
2020/12/04 09:43:23;;;;;;;12.98;6.68;;;6.70;99.90;;;;;;5074477;28;20736;-75
2020/12/04 09:45:49;;;;;;;9.73;6.75;;;6.90;99.90;;;;;;5073842;28;20203;-74
2020/12/04 09:48:16;;;;;;;14.02;7.13;;;6.90;99.90;;;;;;5073706;28;20260;-74
2020/12/04 09:50:43;;;;;;;13.23;6.50;;;7.00;99.90;;;;;;5074042;28;20209;-74
2020/12/04 09:53:10;;;;;;;12.93;7.10;;;7.10;99.90;;;;;;5074156;28;20294;-75
2020/12/04 09:55:37;;;;;;;12.25;6.78;;;7.20;99.90;;;;;;5073880;28;20202;-75
2020/12/04 09:58:03;;;;;;;10.98;6.35;;;7.00;98.90;;;;;;5074272;28;20298;-75
2020/12/04 10:00:29;;;;;;;11.85;7.80;;;7.00;99.40;;;;;;5073363;28;20719;-73
2020/12/04 10:02:55;;;;;;;14.57;7.25;;;7.00;99.30;;;;;;5073772;28;20202;-74
2020/12/04 10:05:22;;;;;;;12.75;7.15;;;7.00;99.30;;;;;;5073329;28;20568;-74
2020/12/04 10:07:49;;;;;;;10.40;6.20;;;7.10;99.30;;;;;;5074038;28;20199;-74
2020/12/04 10:10:15;;;;;;;10.73;6.03;;;7.20;98.90;;;;;;5074066;28;20195;-74
2020/12/04 10:12:41;;;;;;;13.07;7.10;;;7.20;98.80;;;;;;5073534;28;20234;-74
2020/12/04 10:15:08;;;;;;;12.60;7.10;;;7.30;98.80;;;;;;5073543;28;20209;-74
2020/12/04 10:17:34;;;;;;;12.07;6.63;;;7.40;99.20;;;;;;5073585;28;20225;-74
2020/12/04 10:20:00;;;;;;;12.57;6.97;;;7.40;98.90;;;;;;5073762;28;20222;-74
2020/12/04 10:22:27;;;;;;;12.55;6.50;;;7.40;98.90;;;;;;5074079;28;20601;-74
2020/12/04 10:24:55;;;;;;;12.15;7.57;;;7.40;98.40;;;;;;5073640;28;20198;-74
2020/12/04 10:27:21;;;;;;;11.15;7.03;;;7.40;98.90;;;;;;5073517;28;20212;-74
2020/12/04 10:29:47;;;;;;;10.32;6.55;;;7.50;98.90;;;;;;5073356;28;20704;-74
2020/12/04 10:32:14;;;;;;;11.07;7.00;;;7.50;98.80;;;;;;5073767;28;20259;-74
2020/12/04 10:34:40;;;;;;;11.25;6.28;;;7.40;98.70;;;;;;5073618;28;20549;-75
2020/12/04 10:37:06;;;;;;;11.88;6.95;;;7.30;98.10;;;;;;5073940;28;20198;-74
2020/12/04 10:39:33;;;;;;;10.73;6.70;;;7.00;98.10;;;;;;5073672;28;20676;-74
2020/12/04 10:42:00;;;;;;;14.45;6.85;;;6.80;98.00;;;;;;5073027;28;21046;-74
2020/12/04 10:44:26;;;;;;;10.57;6.15;;;6.60;98.80;;;;;;5073214;28;20294;-74
2020/12/04 10:46:52;;;;;;;11.57;7.25;;;6.70;99.90;;;;;;5073060;28;20336;-74
2020/12/04 10:49:19;;;;;;;10.68;7.13;;;6.60;99.00;;;;;;5073686;28;20542;-74
2020/12/04 10:51:53;;;;;;;11.65;6.43;;;6.50;98.70;;;;;;5075982;28;20228;-74
2020/12/04 10:54:20;;;;;;;13.60;6.95;;;6.60;99.90;;;;;;5077998;28;20194;-74
2020/12/04 10:56:46;;;;;;;13.68;6.18;;;6.70;99.90;;;;;;5076898;28;20202;-74
2020/12/04 10:59:13;;;;;;;11.55;6.60;;;6.90;99.90;;;;;;5077307;28;20226;-74
2020/12/04 11:01:43;;;;;;;9.82;6.18;;;6.90;99.90;;;;;;5077496;28;20550;-74
2020/12/04 11:06:55;;;;;;;11.35;6.88;;;6.70;99.00;;;;;;5077372;28;20651;-74
2020/12/04 11:09:22;;;;;;;12.30;7.30;;;6.70;99.90;;;;;;5077300;28;20227;-74
2020/12/04 11:11:48;;;;;;;11.32;7.10;;;6.70;99.60;;;;;;5077444;28;20226;-74
2020/12/04 11:14:15;;;;;;;12.82;7.53;;;6.80;99.90;;;;;;5077176;28;20613;-74
2020/12/04 11:16:42;;;;;;;15.25;7.45;;;6.90;99.90;;;;;;5077028;28;20203;-74
2020/12/04 11:19:09;;;;;;;11.68;6.45;;;7.00;99.90;;;;;;5077049;28;20309;-74
2020/12/04 11:21:35;;;;;;;15.82;8.05;;;7.10;99.30;;;;;;5076722;28;20226;-74
2020/12/04 11:24:02;;;;;;;16.00;8.35;;;7.10;99.60;;;;;;5076785;28;20209;-74
2020/12/04 11:26:28;;;;;;;13.18;7.40;;;7.10;98.70;;;;;;5076623;28;20203;-74
2020/12/04 11:28:54;;;;;;;12.05;7.13;;;7.00;98.60;;;;;;5076931;28;20203;-74
2020/12/04 11:31:22;;;;;;;14.93;7.78;;;7.00;99.50;;;;;;5076854;28;20226;-74
2020/12/04 11:33:48;;;;;;;12.25;7.50;;;7.00;99.30;;;;;;5076936;28;20213;-74
2020/12/04 11:36:14;;;;;;;13.07;6.93;;;7.20;99.90;;;;;;5076117;28;20211;-75
2020/12/04 11:38:41;;;;;;;17.17;9.50;;;7.20;99.80;;;;;;5076479;28;20207;-74
2020/12/04 11:41:07;;;;;;;14.70;7.78;;;7.20;98.30;;;;;;5076376;28;20645;-74
2020/12/04 11:43:33;;;;;;;14.20;8.25;;;7.10;99.20;;;;;;5076879;28;20269;-74
2020/12/04 11:46:00;;;;;;;15.18;9.00;;;7.10;99.50;;;;;;5076045;28;20202;-74
2020/12/04 11:48:28;;;;;;;19.10;7.78;;;7.20;98.60;;;;;;5076109;28;20211;-74
2020/12/04 11:50:55;;;;;;;17.80;8.55;;;7.10;99.00;;;;;;5076052;28;20302;-74
2020/12/04 11:53:21;;;;;;;15.82;8.20;;;7.10;99.00;;;;;;5076510;28;20297;-74
2020/12/04 11:55:47;;;;;;;12.65;7.43;;;7.20;99.60;;;;;;5076453;28;20203;-74
2020/12/04 11:58:14;;;;;;;12.95;7.95;;;7.30;99.40;;;;;;5076411;28;20209;-74
2020/12/04 12:00:40;;;;;;;14.88;7.60;;;7.30;98.40;;;;;;5076392;28;20223;-74
2020/12/04 12:03:06;;;;;;;14.10;7.47;;;7.30;98.90;;;;;;5076568;28;20237;-74
2020/12/04 12:05:36;;;;;;;13.10;6.95;;;7.40;99.80;;;;;;5076048;28;20285;-74
2020/12/04 12:08:03;;;;;;;16.48;7.38;;;7.40;99.10;;;;;;5076093;28;20207;-74
2020/12/04 12:10:29;;;;;;;22.42;7.32;;;7.50;98.80;;;;;;5076099;28;20289;-74
2020/12/04 12:12:56;;;;;;;12.98;8.45;;;7.40;98.50;;;;;;5076034;28;20568;-74
2020/12/04 12:15:22;;;;;;;15.05;8.20;;;7.40;98.60;;;;;;5075701;28;20207;-74
2020/12/04 12:17:48;;;;;;;12.07;7.25;;;7.50;99.10;;;;;;5075682;28;20294;-74
2020/12/04 12:20:15;;;;;;;14.30;6.50;;;7.30;97.80;;;;;;5075763;28;20229;-74
2020/12/04 12:22:42;;;;;;;12.65;6.88;;;7.30;98.80;;;;;;5075918;28;20630;-74
2020/12/04 12:25:08;;;;;;;13.63;7.07;;;7.30;98.70;;;;;;5075500;28;20687;-74
2020/12/04 12:27:34;;;;;;;11.55;7.20;;;7.30;98.80;;;;;;5075868;28;20217;-74
2020/12/04 12:30:01;;;;;;;19.00;6.50;;;7.10;98.90;;;;;;5075899;28;20202;-75
2020/12/04 12:32:27;;;;;;;9.40;6.43;;;6.90;98.90;;;;;;5075494;28;20225;-74
2020/12/04 12:35:00;;;;;;;11.35;7.32;;;6.80;99.90;;;;;;5075213;28;20213;-75
2020/12/04 12:37:27;;;;;;;8.52;6.10;;;7.00;99.90;;;;;;5075634;28;20229;-74
2020/12/04 12:39:54;;;;;;;9.55;6.22;;;7.00;99.90;;;;;;5075404;28;20309;-74
2020/12/04 12:42:21;;;;;;;11.95;6.55;;;7.10;99.90;;;;;;5075255;28;20233;-74
2020/12/04 12:44:47;;;;;;;12.25;7.03;;;7.10;99.50;;;;;;5075987;28;20388;-75
2020/12/04 12:47:15;;;;;;;11.23;6.32;;;6.90;99.50;;;;;;5075192;28;20232;-74
2020/12/04 12:49:41;;;;;;;12.40;6.95;;;6.80;99.90;;;;;;5075287;28;20199;-74
2020/12/04 12:52:09;;;;;;;12.20;6.95;;;6.90;99.90;;;;;;5075379;28;20292;-71
2020/12/04 12:54:35;;;;;;;9.30;5.82;;;7.00;99.90;;;;;;5075353;28;20702;-75